Location Rome, RM, ITALY

ob HAUTRON 252300Z AUTO 13000KT OVC 23/21 A3022 RMK SLPNO 

2019.08.25 2300 UTC
Wind from the SE (131 degrees) at Calm MPH ( KT) gusting to 0 MPH (0 KT)
Visibility    Mile(s)
Sky Conditions  overcast
Temperature 72.8 F (23 C)
Dew Point 70.1 F (21 C)
Relative Humidity 91%
Pressure   30.228 in. Hg (1024 hPa)
Rain  0.00 in.
Daily Rain  in.

Station Name  Rome Colli Aniene
Longitude, Latitude  41, 12
Elevation 60
Station URL http://home.hautron.com/weather
Software Type WeatherDisplay:10.10r